Tiempo atmosférico en la estación meteorológica de Puerto de Pajares, Asturias (1480 m.)



Fecha
DESCASC
Temp. máxima en grados centígrados (hora)
DESCASC
Temp. mínima en grados centígrados (hora)
DESCASC
Temp. media en grados centígrados
DESCASC
Racha de viento máxima en m/sg (hora)
DESCASC
Velocidad máxima media en intervalos de 10 minutos(hora)
DESCASC
Precipitaciones diarias en mm
DESCASC
Precipitaciones de 00:00 a 06:00 en mm
DESCASC
Precipitaciones de 06:00 a 12:00 en mm
DESCASC
Precipitaciones de 12:00 a 18:00 en mm
DESCASC
Precipitaciones de 18:00 a 24:00 en mm
DESCASC

Gráficas

Temp. máximas Temp. mínimas Temp. medias Precipitaciones Rachas de viento máximas Velocidades máximas media en intervalos de 10 minutos

Datos horarios

Fecha y hora oficial Temperatura (ºC) Velocidad del viento (km/h) Dirección del viento Racha (km/h) Dirección de racha Precipitación (mm) Presión (hPa) Tendencia (hPa) Humedad (%)
2019-10-15 23:00:00 5.6 23 Sur 50 Sur 0.1 -- -- 78
2019-10-15 22:00:00 5.1 24 Sur 49 Sur 1.1 -- -- 77
2019-10-15 21:00:00 5 20 Sur 50 Sur 0.9 -- -- 73
2019-10-15 20:00:00 5.3 20 Sur 36 Sur 1 -- -- 75
2019-10-15 19:00:00 5.6 12 Sur 30 Sur 0.6 -- -- 78
2019-10-15 18:00:00 5.8 17 Sur 50 Sudoeste 0 -- -- 77
2019-10-15 17:00:00 6.4 17 Sur 50 Sudoeste 0 -- -- 70
2019-10-15 16:00:00 6.2 16 Sudeste 32 Sudeste 0 -- -- 70
2019-10-15 15:00:00 6.7 10 Sur 26 Sur 0 -- -- 66
2019-10-15 14:00:00 6.4 13 Sur 31 Sur 0 -- -- 64
2019-10-15 13:00:00 7.4 8 Sur 23 Este 0 -- -- 55
2019-10-15 12:00:00 6.8 8 Este 27 Este 0.1 -- -- 56
2019-10-15 11:00:00 4 3 Norte 18 Sudoeste 0 -- -- 64
2019-10-15 10:00:00 3.6 12 Sudoeste 21 Sudoeste 0 -- -- 64
2019-10-15 09:00:00 2.9 10 Sudoeste 27 Sur 0 -- -- 65
2019-10-15 08:00:00 3 14 Sur 28 Sur 0 -- -- 67
2019-10-15 07:00:00 2.6 12 Sudoeste 24 Sur 0 -- -- 67
2019-10-15 06:00:00 2.7 3 Sudoeste 18 Sudoeste 0 -- -- 66
2019-10-15 05:00:00 1 5 Sur 23 Norte 0 -- -- 71
2019-10-15 04:00:00 2.8 2 Nordeste 21 Noroeste 0 -- -- 68
2019-10-15 03:00:00 2.9 0 Calma 23 Sudeste 0 -- -- 70
2019-10-15 02:00:00 1.7 5 Este 13 Este 0 -- -- 79
2019-10-15 01:00:00 2.2 3 Noroeste 13 Oeste 0 -- -- 80
2019-10-15 00:00:00 2.3 2 Noroeste 10 Noroeste 0.4 -- -- 80
2019-10-14 23:00:00 2.5 3 Oeste 19 Norte 0 -- -- 76
2019-10-14 22:00:00 3.2 8 Sur 32 Sur 0 -- -- 68
2019-10-14 21:00:00 3.1 11 Sur 26 Sudoeste 0.1 -- -- 66
2019-10-14 20:00:00 3.5 3 Oeste 31 Sur 0.1 -- -- 72
2019-10-14 19:00:00 4.5 0 Calma 41 Sudoeste 0 -- -- 72
2019-10-14 18:00:00 4.9 10 Sudoeste 30 Sudoeste 0 -- -- 68
2019-10-14 17:00:00 4.6 7 Sudoeste 33 Sudoeste 1.5 -- -- 73
2019-10-14 16:00:00 6.4 18 Sudoeste 42 Sur 0 -- -- 69
2019-10-14 15:00:00 5.6 19 Sur 41 Sudoeste 0.2 -- -- 75
2019-10-14 14:00:00 5.2 13 Sur 31 Sudeste 2.6 -- -- 77
2019-10-14 13:00:00 5.5 21 Sur 37 Sur 0.6 -- -- 77
2019-10-14 12:00:00 5.8 23 Sur 37 Sur 0 -- -- 73
2019-10-14 11:00:00 5.7 19 Sur 46 Sudoeste 0.1 -- -- 73
2019-10-14 10:00:00 4.7 18 Sur 38 Sudoeste 5.5 -- -- 77
2019-10-14 09:00:00 5.2 22 Sudoeste 45 Sudoeste 4.9 -- -- 73
2019-10-14 08:00:00 7.3 9 Sudoeste 40 Sur 2.3 -- -- 73
2019-10-14 07:00:00 9.6 17 Sur 60 Sur 0.3 -- -- 72
2019-10-14 06:00:00 10.3 26 Sur 52 Sur 0 -- -- 73
2019-10-14 05:00:00 10.1 22 Sur 47 Sur 0 -- -- 73
2019-10-14 04:00:00 10.3 16 Sur 69 Sur 0 -- -- 71
2019-10-14 03:00:00 10.5 20 Sur 59 Sur 0 -- -- 70
2019-10-14 02:00:00 10.1 20 Sur 51 Sur 0 -- -- 69
2019-10-14 01:00:00 10.5 25 Sur 56 Sur 0 -- -- 65
2019-10-14 00:00:00 10.7 25 Sur 68 Sur 0 -- -- 65
2019-10-13 23:00:00 10.4 29 Sur 64 Sur 0 -- -- 68
2019-10-13 22:00:00 11 31 Sur 61 Sur 0 -- -- 62
2019-10-13 21:00:00 11.5 23 Sur 47 Sur 0 -- -- 65
2019-10-13 20:00:00 11.7 18 Sur 40 Sur 0 -- -- 69
2019-10-13 19:00:00 11.9 15 Sur 40 Sudeste 0 -- -- 69
2019-10-13 18:00:00 11.6 19 Sur 47 Sur 0 -- -- 74
2019-10-13 17:00:00 11.1 20 Sur 42 Sur 0 -- -- 80
2019-10-13 16:00:00 10.7 24 Sur 50 Sur 0 -- -- 82
2019-10-13 15:00:00 10 21 Sur 37 Sur 0.2 -- -- 85
2019-10-13 14:00:00 9.7 18 Sudeste 42 Sudeste 1.4 -- -- 86
2019-10-13 13:00:00 9.2 19 Sudeste 47 Sur 0 -- -- 90
2019-10-13 12:00:00 8.4 29 Sur 51 Sur 0 -- -- 91
2019-10-13 11:00:00 8 31 Sur 62 Sur 0 -- -- 91
2019-10-13 10:00:00 8.2 27 Sur 60 Sur 0 -- -- 87
2019-10-13 09:00:00 8.3 21 Sudeste 50 Sur 0 -- -- 84
2019-10-13 08:00:00 8.5 23 Sudeste 59 Sur 0 -- -- 83
2019-10-13 07:00:00 8.6 35 Sur 63 Sur 0 -- -- 81
2019-10-13 06:00:00 9.2 32 Sur 65 Sur 0 -- -- 79
2019-10-13 05:00:00 9.8 32 Sur 63 Sur 0 -- -- 74
2019-10-13 04:00:00 10.3 28 Sur 56 Sur 0 -- -- 71
2019-10-13 03:00:00 11.4 21 Sudeste 62 Sur 0 -- -- 65
2019-10-13 02:00:00 12.3 34 Sur 57 Sur 0 -- -- 65
2019-10-13 01:00:00 13.4 31 Sur 78 Sur 0 -- -- 61
2019-10-13 00:00:00 14.5 32 Sur 62 Sur 0 -- -- 57
2019-10-12 23:00:00 15.1 24 Sur 53 Sur 0.1 -- -- 54
2019-10-12 22:00:00 15.2 26 Sur 48 Sur 0 -- -- 54
2019-10-12 21:00:00 13.9 19 Sur 73 Sudoeste 2.7 -- -- 59
2019-10-12 20:00:00 15.9 20 Sur 49 Sur 0 -- -- 47
2019-10-12 19:00:00 16.8 16 Sur 49 Sur 0 -- -- 42
2019-10-12 18:00:00 17.6 18 Sur 55 Sudoeste 0 -- -- 42
2019-10-12 17:00:00 17.7 19 Sur 50 Sur 0 -- -- 42
2019-10-12 16:00:00 17.4 17 Sur 48 Sur 0 -- -- 45
2019-10-12 15:00:00 16.4 25 Sur 55 Sur 0 -- -- 49
2019-10-12 14:00:00 14.7 27 Sur 66 Sur 0 -- -- 60
2019-10-12 13:00:00 15.2 20 Sur 49 Sur 0 -- -- 58
2019-10-12 12:00:00 13.9 21 Sur 44 Sur 0 -- -- 61
2019-10-12 11:00:00 12.8 27 Sudeste 49 Este 0 -- -- 66
2019-10-12 10:00:00 10.9 28 Sudeste 50 Este 0 -- -- 75
2019-10-12 09:00:00 10.8 28 Este 50 Este 0 -- -- 76
2019-10-12 08:00:00 10.8 23 Sudeste 46 Sudeste 0 -- -- 76
2019-10-12 07:00:00 11.2 14 Sudeste 31 Este 0 -- -- 73
2019-10-12 06:00:00 12.2 15 Sudeste 36 Sudeste 0 -- -- 65
2019-10-12 05:00:00 12.9 15 Sur 28 Sur 0 -- -- 61
2019-10-12 04:00:00 13.2 10 Sudeste 30 Sur 0 -- -- 60
2019-10-12 03:00:00 13.5 17 Sur 30 Sur 0 -- -- 58
2019-10-12 02:00:00 14.4 15 Sur 28 Sur 0 -- -- 54
2019-10-12 01:00:00 15.3 16 Sur 29 Sur 0 -- -- 51
2019-10-12 00:00:00 15.8 10 Sur 24 Sur 0 -- -- 51
2019-10-11 23:00:00 15.5 13 Sur 23 Sur 0 -- -- 51
2019-10-11 22:00:00 13.8 8 Sur 15 Sur 0 -- -- 57
2019-10-11 21:00:00 13.3 7 Sur 17 Sudoeste 0 -- -- 55
2019-10-11 20:00:00 15.3 5 Sur 23 Sur 0 -- -- 46
2019-10-11 19:00:00 17.4 10 Sudoeste 22 Sudoeste 0 -- -- 41
2019-10-11 18:00:00 18.3 9 Sur 34 Sur 0 -- -- 39
2019-10-11 17:00:00 18.6 19 Sur 37 Sur 0 -- -- 38
2019-10-11 16:00:00 18.3 17 Sur 36 Sur 0 -- -- 39
2019-10-11 15:00:00 18.4 10 Sudeste 33 Sur 0 -- -- 39
2019-10-11 14:00:00 17.4 16 Sur 41 Sur 0 -- -- 38
2019-10-11 13:00:00 16.2 23 Sur 39 Sur 0 -- -- 40
2019-10-11 12:00:00 14.9 20 Sur 37 Sur 0 -- -- 42
2019-10-11 11:00:00 13 15 Sudeste 35 Sudeste 0 -- -- 46
2019-10-11 10:00:00 11.3 13 Sur 30 Sur 0 -- -- 48
2019-10-11 09:00:00 10.9 17 Sur 42 Sur 0 -- -- 48
2019-10-11 08:00:00 11.2 21 Sur 37 Sur 0 -- -- 47
2019-10-11 07:00:00 11.5 19 Sudeste 42 Sur 0 -- -- 46
2019-10-11 06:00:00 11.5 23 Sur 35 Sur 0 -- -- 45
2019-10-11 05:00:00 11.8 19 Sur 40 Sudeste 0 -- -- 45
2019-10-11 04:00:00 11.6 27 Sur 42 Sur 0 -- -- 45
2019-10-11 03:00:00 11.2 20 Sur 31 Sur 0 -- -- 48
2019-10-11 02:00:00 11.6 21 Sur 37 Sur 0 -- -- 47
2019-10-11 01:00:00 11.8 22 Sur 43 Sur 0 -- -- 46
2019-10-11 00:00:00 11.8 24 Sur 38 Sur 0 -- -- 45
2019-10-10 23:00:00 12 27 Sur 36 Sur 0 -- -- 44
2019-10-10 22:00:00 12.3 17 Sur 27 Sur 0 -- -- 44
2019-10-10 21:00:00 12.2 14 Sur 24 Sur 0 -- -- 44
2019-10-10 20:00:00 12.9 15 Sur 21 Sur 0 -- -- 44
2019-10-10 19:00:00 13.1 8 Sur 14 Sur 0 -- -- 47
2019-10-10 18:00:00 15 0 Calma 8 Noroeste 0 -- -- 48
2019-10-10 17:00:00 15.1 3 Noroeste 8 Noroeste 0 -- -- 45
2019-10-10 16:00:00 14.9 4 Noroeste 9 Noroeste 0 -- -- 44
2019-10-10 15:00:00 14.6 4 Noroeste 9 Noroeste 0 -- -- 42
2019-10-10 14:00:00 14.1 4 Noroeste 9 Norte 0 -- -- 39
2019-10-10 13:00:00 13.4 4 Noroeste 10 Oeste 0 -- -- 36
2019-10-10 12:00:00 13.5 0 Calma 7 Norte 0 -- -- 34
2019-10-10 11:00:00 11.7 3 Este 5 Sudeste 0 -- -- 39
2019-10-10 10:00:00 6.9 0 Calma 9 Sur 0 -- -- 53
2019-10-10 09:00:00 4.2 5 Sur 8 Sur 0 -- -- 70
2019-10-10 08:00:00 5.5 4 Oeste 13 Sudoeste 0 -- -- 53
2019-10-10 07:00:00 5 10 Sudoeste 13 Sudoeste 0 -- -- 65
2019-10-10 06:00:00 4.6 0 Calma 5 Oeste 0 -- -- 71
2019-10-10 05:00:00 4.5 2 Oeste 9 Sudoeste 0 -- -- 70
2019-10-10 04:00:00 4.7 7 Sur 11 Sur 0 -- -- 64
2019-10-10 03:00:00 3.8 0 Calma 9 Sudoeste 0 -- -- 80
2019-10-10 02:00:00 4.3 2 Sur 6 Sur 0 -- -- 89
2019-10-10 01:00:00 4.8 3 Sudoeste 6 Sudoeste 0 -- -- 87
2019-10-10 00:00:00 4.8 0 Calma 8 Sudoeste 0 -- -- 86
2019-10-09 23:00:00 5.9 3 Sur 9 Noroeste 0 -- -- 86
2019-10-09 22:00:00 6.1 0 Calma 5 Noroeste 0 -- -- 88
2019-10-09 21:00:00 6.2 2 Noroeste 12 Noroeste 0 -- -- 87
2019-10-09 20:00:00 5.8 0 Calma 6 Norte 0 -- -- 78
2019-10-09 19:00:00 7.2 3 Noroeste 17 Noroeste 0 -- -- 73
2019-10-09 18:00:00 7.8 8 Noroeste 22 Noroeste 0 -- -- 69
2019-10-09 17:00:00 8.5 10 Noroeste 21 Noroeste 0 -- -- 67
2019-10-09 16:00:00 9.3 9 Noroeste 19 Noroeste 0 -- -- 64
2019-10-09 15:00:00 9.1 6 Noroeste 15 Noroeste 0 -- -- 64
2019-10-09 14:00:00 8.1 7 Noroeste 13 Noroeste 0 -- -- 68
2019-10-09 13:00:00 7.2 7 Noroeste 17 Noroeste 0.1 -- -- 71
2019-10-09 12:00:00 7 6 Noroeste 18 Norte 0 -- -- 77
2019-10-09 11:00:00 5.6 8 Noroeste 17 Noroeste 0 -- -- 84
2019-10-09 10:00:00 4.5 6 Noroeste 13 Noroeste 0 -- -- 91
2019-10-09 09:00:00 4.1 4 Norte 19 Noroeste 0 -- -- 91
2019-10-09 08:00:00 3.8 6 Norte 16 Noroeste 0 -- -- 91
2019-10-09 07:00:00 4.2 10 Noroeste 22 Noroeste 0 -- -- 91
2019-10-09 06:00:00 5.4 12 Noroeste 23 Noroeste 0.1 -- -- 91
2019-10-09 05:00:00 5.8 5 Noroeste 12 Noroeste 0.6 -- -- 91
2019-10-09 04:00:00 5.8 4 Noroeste 12 Noroeste 0.7 -- -- 91
2019-10-09 03:00:00 6.3 0 Calma 11 Noroeste 0.7 -- -- 91
2019-10-09 02:00:00 6.9 0 Calma 4 Noroeste 0.2 -- -- 91
2019-10-09 01:00:00 7.6 0 Calma 4 Norte 0.3 -- -- 91
2019-10-09 00:00:00 7.8 4 Noroeste 10 Noroeste 0.7 -- -- 91
2019-10-08 23:00:00 7.7 4 Noroeste 12 Noroeste 0.6 -- -- 91
2019-10-08 22:00:00 8 3 Noroeste 10 Noroeste 0.3 -- -- 90
2019-10-08 21:00:00 8.6 0 Calma 3 Noroeste 0.2 -- -- 90
2019-10-08 20:00:00 9.1 0 Calma 4 Noroeste 0.3 -- -- 90
2019-10-08 19:00:00 9.9 2 Noroeste 8 Noroeste 0.4 -- -- 90
2019-10-08 18:00:00 10.7 0 Calma 6 Noroeste 0 -- -- 90
2019-10-08 17:00:00 11.4 0 Calma 9 Noroeste 0 -- -- 89
2019-10-08 16:00:00 12.9 3 Noroeste 19 Oeste 0 -- -- 83
2019-10-08 15:00:00 16.7 10 Noroeste 19 Noroeste 0 -- -- 58
2019-10-08 14:00:00 17.2 5 Noroeste 11 Noroeste 0 -- -- 55
2019-10-08 13:00:00 17.2 3 Noroeste 9 Noroeste 0 -- -- 53
2019-10-08 12:00:00 18.7 7 Sudeste 17 Sudeste 0 -- -- 49
2019-10-08 11:00:00 16.8 13 Sur 22 Sur 0 -- -- 52
2019-10-08 10:00:00 14.5 13 Sur 25 Sur 0 -- -- 53
2019-10-08 09:00:00 15.1 9 Sudoeste 24 Sur 0 -- -- 54
2019-10-08 08:00:00 14.1 13 Sur 22 Sur 0 -- -- 57
2019-10-08 07:00:00 14.5 12 Sur 24 Sur 0 -- -- 55
2019-10-08 06:00:00 15 17 Sur 24 Sur 0 -- -- 52
2019-10-08 05:00:00 14.8 13 Sur 23 Sudeste 0 -- -- 47
2019-10-08 04:00:00 14.7 14 Sur 21 Sur 0 -- -- 47
2019-10-08 03:00:00 14.3 10 Sur 22 Sur 0 -- -- 47
2019-10-08 02:00:00 14.2 11 Sur 15 Sur 0 -- -- 48
2019-10-08 01:00:00 13.9 12 Sur 17 Sur 0 -- -- 48
2019-10-08 00:00:00 14.4 12 Sur 18 Sur 0 -- -- 46
2019-10-07 23:00:00 14.7 13 Sur 16 Sur 0 -- -- 45
2019-10-07 22:00:00 14.6 12 Sur 17 Sur 0 -- -- 44
2019-10-07 21:00:00 14 12 Sur 17 Sur 0 -- -- 47
2019-10-07 20:00:00 13 11 Sudoeste 13 Sudoeste 0 -- -- 48
2019-10-07 19:00:00 11.9 5 Sur 7 Sur 0 -- -- 51
2019-10-07 18:00:00 17.7 3 Oeste 6 Oeste 0 -- -- 31
2019-10-07 17:00:00 17.5 3 Noroeste 13 Noroeste 0 -- -- 28
2019-10-07 16:00:00 17.9 5 Norte 12 Norte 0 -- -- 22
2019-10-07 15:00:00 18.5 3 Noroeste 13 Noroeste 0 -- -- 17
2019-10-07 14:00:00 18.4 4 Oeste 14 Oeste 0 -- -- 15
2019-10-07 13:00:00 18 5 Oeste 13 Oeste 0 -- -- 15
2019-10-07 12:00:00 17.1 4 Noroeste 8 Oeste 0 -- -- 15
2019-10-07 11:00:00 16.5 0 Calma 7 Oeste 0 -- -- 18
2019-10-07 10:00:00 10.9 0 Calma 6 Sur 0 -- -- 30
2019-10-07 09:00:00 10 0 Calma 9 Norte 0 -- -- 25
2019-10-07 08:00:00 9.8 3 Noroeste 12 Sudoeste 0 -- -- 26
2019-10-07 07:00:00 8.5 7 Sur 13 Sur 0 -- -- 30
2019-10-07 06:00:00 8.4 6 Sur 10 Sur 0 -- -- 32
2019-10-07 05:00:00 8.7 0 Calma 8 Sudoeste 0 -- -- 31
2019-10-07 04:00:00 9.6 5 Sudoeste 8 Sudoeste 0 -- -- 31
2019-10-07 03:00:00 10.5 4 Oeste 13 Oeste 0 -- -- 31
2019-10-07 02:00:00 10.1 0 Calma 10 Oeste 0 -- -- 39
2019-10-07 01:00:00 8.1 0 Calma 9 Oeste 0 -- -- 55
2019-10-07 00:00:00 7.8 2 Sur 13 Sur 0 -- -- 76
2019-10-06 23:00:00 8.7 0 Calma 4 Sudoeste 0 -- -- 90
2019-10-06 22:00:00 9.2 0 Calma 12 Noroeste 0 -- -- 90
2019-10-06 21:00:00 9.7 0 Calma 6 Oeste 0 -- -- 89
2019-10-06 20:00:00 10.4 0 Calma 4 Oeste 0 -- -- 86
2019-10-06 19:00:00 10.7 0 Calma 5 Norte 0 -- -- 82
2019-10-06 18:00:00 11.3 3 Noroeste 8 Norte 0 -- -- 82
2019-10-06 17:00:00 11.9 5 Noroeste 11 Oeste 0 -- -- 79
2019-10-06 16:00:00 11.7 3 Norte 12 Nordeste 0 -- -- 85
2019-10-06 15:00:00 11.1 4 Noroeste 13 Noroeste 0 -- -- 85
2019-10-06 14:00:00 10.9 7 Noroeste 14 Noroeste 0 -- -- 77
2019-10-06 13:00:00 12.6 0 Calma 10 Noroeste 0 -- -- 73
2019-10-06 12:00:00 13.1 2 Norte 9 Norte 0 -- -- 71
2019-10-06 11:00:00 10.4 0 Calma 9 Noroeste 0 -- -- 86
2019-10-06 10:00:00 10 3 Noroeste 7 Noroeste 0 -- -- 87
2019-10-06 09:00:00 8.9 0 Calma 9 Noroeste 0 -- -- 87
2019-10-06 08:00:00 9.1 3 Norte 10 Norte 0 -- -- 87
2019-10-06 07:00:00 8.5 2 Sudoeste 11 Norte 0 -- -- 84
2019-10-06 06:00:00 10.2 6 Noroeste 15 Noroeste 0 -- -- 81
2019-10-06 05:00:00 10.3 4 Noroeste 10 Noroeste 0 -- -- 80
2019-10-06 04:00:00 9.7 3 Norte 19 Noroeste 0 -- -- 79
2019-10-06 03:00:00 9.1 4 Noroeste 15 Noroeste 0 -- -- 70
2019-10-06 02:00:00 8.8 4 Noroeste 14 Norte 0 -- -- 65
2019-10-06 01:00:00 8.6 2 Norte 11 Sur 0 -- -- 64
2019-10-06 00:00:00 7.8 5 Sur 12 Oeste 0 -- -- 87
2019-10-05 23:00:00 9.5 0 Calma 10 Noroeste 0 -- -- 88
2019-10-05 22:00:00 10.4 5 Noroeste 14 Oeste 0 -- -- 68
2019-10-05 21:00:00 9.9 5 Sudoeste 8 Sudoeste 0 -- -- 88
2019-10-05 20:00:00 10.1 0 Calma 5 Noroeste 0 -- -- 88
2019-10-05 19:00:00 10 0 Calma 10 Noroeste 0 -- -- 86
2019-10-05 18:00:00 12.9 6 Noroeste 12 Noroeste 0 -- -- 73
2019-10-05 17:00:00 13.3 6 Noroeste 10 Noroeste 0 -- -- 73
2019-10-05 16:00:00 13.7 6 Noroeste 16 Sudeste 0 -- -- 64
2019-10-05 15:00:00 17 5 Sur 14 Sur 0 -- -- 57
2019-10-05 14:00:00 13.2 0 Calma 11 Noroeste 0 -- -- 73
2019-10-05 13:00:00 13.6 7 Noroeste 12 Noroeste 0 -- -- 60
2019-10-05 12:00:00 14.7 4 Noroeste 8 Noroeste 0 -- -- 60
2019-10-05 11:00:00 14.7 0 Calma 6 Noroeste 0 -- -- 60
2019-10-05 10:00:00 11.5 0 Calma 11 Sur 0 -- -- 67
2019-10-05 09:00:00 10.2 7 Sudoeste 17 Sur 0 -- -- 61
2019-10-05 08:00:00 9.9 6 Sudoeste 16 Sur 0 -- -- 66
2019-10-05 07:00:00 10.6 9 Sudoeste 15 Sur 0 -- -- 67
2019-10-05 06:00:00 10.1 9 Sur 18 Sur 0 -- -- 71
2019-10-05 05:00:00 11.3 12 Sur 19 Sur 0 -- -- 73
2019-10-05 04:00:00 11.4 10 Sur 18 Sur 0.1 -- -- 72
2019-10-05 03:00:00 11.6 7 Sur 15 Sur 0 -- -- 73
2019-10-05 02:00:00 11.7 9 Sur 20 Sur 0 -- -- 73
2019-10-05 01:00:00 10.9 9 Sur 17 Sur 0 -- -- 74
2019-10-05 00:00:00 11.9 8 Sur 15 Sur 0 -- -- 72
2019-10-04 23:00:00 11.3 9 Sur 14 Sur 0 -- -- 83
2019-10-04 22:00:00 8.1 3 Sudoeste 10 Sudoeste 0 -- -- 91
2019-10-04 21:00:00 8.7 0 Calma 6 Este 0 -- -- 91
2019-10-04 20:00:00 9.6 0 Calma 4 Noroeste 0 -- -- 91
2019-10-04 19:00:00 10.1 0 Calma 3 Noroeste 0.1 -- -- 91
2019-10-04 18:00:00 10 2 Noroeste 5 Noroeste 0 -- -- 91
2019-10-04 17:00:00 10.2 2 Noroeste 8 Noroeste 0 -- -- 91
2019-10-04 16:00:00 10.5 2 Noroeste 11 Noroeste 0 -- -- 90
2019-10-04 15:00:00 10.8 3 Noroeste 13 Noroeste 0 -- -- 85
2019-10-04 14:00:00 13.7 8 Noroeste 15 Noroeste 0 -- -- 72
2019-10-04 13:00:00 12.8 3 Noroeste 10 Norte 0 -- -- 78
2019-10-04 12:00:00 13 0 Calma 8 Norte 0 -- -- 79
2019-10-04 11:00:00 10.2 3 Norte 9 Noroeste 0 -- -- 90
2019-10-04 10:00:00 9.8 0 Calma 3 Nordeste 0 -- -- 90
2019-10-04 09:00:00 8.7 0 Calma 11 Sur 0 -- -- 88
2019-10-04 08:00:00 9.1 8 Sudoeste 11 Sudoeste 0 -- -- 86
2019-10-04 07:00:00 9 3 Sur 11 Sur 0 -- -- 87
2019-10-04 06:00:00 8.5 6 Sur 10 Sur 0 -- -- 88
2019-10-04 05:00:00 8.6 0 Calma 13 Sur 0 -- -- 85
2019-10-04 04:00:00 10.7 9 Sur 15 Sur 0 -- -- 82
2019-10-04 03:00:00 9.9 9 Sur 12 Sudoeste 0 -- -- 84
2019-10-04 02:00:00 10.4 8 Sudoeste 11 Sudoeste 0 -- -- 86
2019-10-04 01:00:00 9.9 0 Calma 14 Sudoeste 0 -- -- 86
2019-10-04 00:00:00 9.7 8 Sur 12 Sudoeste 0 -- -- 84
2019-10-03 23:00:00 9.6 0 Calma 9 Sur 0 -- -- 83
2019-10-03 22:00:00 10.1 0 Calma 7 Oeste 0 -- -- 79
2019-10-03 21:00:00 10.4 0 Calma 8 Sudoeste 0 -- -- 72
2019-10-03 20:00:00 10.8 0 Calma 10 Norte 0 -- -- 70
2019-10-03 19:00:00 13.2 4 Noroeste 10 Norte 0 -- -- 59
2019-10-03 18:00:00 15.8 5 Noroeste 14 Noroeste 0 -- -- 49
2019-10-03 17:00:00 16 6 Noroeste 15 Noroeste 0 -- -- 45
2019-10-03 16:00:00 17.4 5 Noroeste 14 Norte 0 -- -- 34
2019-10-03 15:00:00 17.1 6 Noroeste 12 Noroeste 0 -- -- 34
2019-10-03 14:00:00 16.4 4 Norte 13 Sudoeste 0 -- -- 33
2019-10-03 13:00:00 15.2 6 Oeste 12 Noroeste 0 -- -- 33
2019-10-03 12:00:00 15.7 4 Noroeste 13 Norte 0 -- -- 30
2019-10-03 11:00:00 15.1 4 Norte 19 Norte 0 -- -- 32
2019-10-03 10:00:00 10.8 5 Sur 12 Sudoeste 0 -- -- 49
2019-10-03 09:00:00 9.1 10 Sudoeste 14 Sur 0 -- -- 51
2019-10-03 08:00:00 8 10 Sur 12 Sur 0 -- -- 55
2019-10-03 07:00:00 7.8 6 Sur 17 Sur 0 -- -- 53
2019-10-03 06:00:00 8.3 7 Sur 23 Sur 0 -- -- 52
2019-10-03 05:00:00 10.4 13 Sur 31 Sudeste 0 -- -- 53
2019-10-03 04:00:00 9.4 17 Sur 28 Sur 0 -- -- 64
2019-10-03 03:00:00 9.9 21 Sudeste 28 Sudeste 0 -- -- 62
2019-10-03 02:00:00 10.4 15 Sur 25 Sur 0 -- -- 60
2019-10-03 01:00:00 10.2 14 Sur 23 Sur 0 -- -- 63
2019-10-03 00:00:00 9.8 15 Sur 26 Sur 0 -- -- 68
2019-10-02 23:00:00 6.8 0 Calma 17 Sur 0 -- -- 89
2019-10-02 22:00:00 7.8 0 Calma 5 Oeste 0 -- -- 87
2019-10-02 21:00:00 8.4 0 Calma 3 Sudoeste 0 -- -- 86
2019-10-02 20:00:00 8.5 0 Calma 10 Noroeste 0 -- -- 82
2019-10-02 19:00:00 9.5 4 Noroeste 13 Noroeste 0 -- -- 74
2019-10-02 18:00:00 10.5 5 Noroeste 14 Noroeste 0 -- -- 65
2019-10-02 17:00:00 11.2 5 Norte 13 Noroeste 0 -- -- 61
2019-10-02 16:00:00 10.9 6 Noroeste 18 Noroeste 0 -- -- 65
2019-10-02 15:00:00 10.7 6 Norte 20 Noroeste 0 -- -- 65
2019-10-02 14:00:00 9.1 10 Noroeste 18 Noroeste 0 -- -- 73
2019-10-02 13:00:00 7.7 6 Noroeste 22 Noroeste 0 -- -- 92
2019-10-02 12:00:00 6.3 10 Noroeste 25 Noroeste 0.1 -- -- 92
2019-10-02 11:00:00 6.2 12 Noroeste 24 Noroeste 0 -- -- 92
2019-10-02 10:00:00 5.8 11 Noroeste 23 Noroeste 0 -- -- 90
2019-10-02 09:00:00 5.8 10 Noroeste 34 Noroeste 0 -- -- 85
2019-10-02 08:00:00 6.2 13 Noroeste 29 Noroeste 0 -- -- 79
2019-10-02 07:00:00 6.3 17 Noroeste 30 Noroeste 0 -- -- 77
2019-10-02 06:00:00 6.3 15 Noroeste 37 Noroeste 0 -- -- 76
2019-10-02 05:00:00 6 14 Noroeste 31 Noroeste 0 -- -- 79
2019-10-02 04:00:00 5.8 13 Noroeste 35 Noroeste 0 -- -- 90
2019-10-02 03:00:00 6.4 14 Noroeste 26 Noroeste 0 -- -- 92
2019-10-02 02:00:00 6.9 12 Noroeste 27 Noroeste 0 -- -- 92
2019-10-02 01:00:00 7.4 10 Noroeste 21 Noroeste 0 -- -- 92
2019-10-02 00:00:00 7.6 11 Noroeste 21 Noroeste 0 -- -- 91
2019-10-01 23:00:00 8.3 5 Noroeste 17 Nordeste 0 -- -- 84
2019-10-01 22:00:00 8.9 0 Calma 15 Noroeste 0 -- -- 90
2019-10-01 21:00:00 9.6 6 Noroeste 18 Noroeste 0 -- -- 90
2019-10-01 20:00:00 10.5 4 Noroeste 13 Noroeste 0 -- -- 85
2019-10-01 19:00:00 12.4 7 Oeste 24 Oeste 0 -- -- 63
2019-10-01 18:00:00 14.3 3 Oeste 16 Noroeste 0 -- -- 51
2019-10-01 17:00:00 15.7 5 Noroeste 18 Noroeste 0 -- -- 51
2019-10-01 16:00:00 14.7 9 Noroeste 16 Oeste 0 -- -- 52
2019-10-01 15:00:00 15.9 5 Noroeste 17 Noroeste 0 -- -- 47
2019-10-01 14:00:00 15.2 8 Noroeste 17 Noroeste 0 -- -- 49
2019-10-01 13:00:00 14.6 5 Noroeste 19 Sudoeste 0 -- -- 52
2019-10-01 12:00:00 13.7 3 Oeste 22 Sudoeste 0 -- -- 59
2019-10-01 11:00:00 11.9 0 Calma 15 Sur 0 -- -- 69
2019-10-01 10:00:00 11.8 2 Noroeste 32 Sur 0 -- -- 68
2019-10-01 09:00:00 10.8 8 Sur 16 Sudoeste 0 -- -- 70
2019-10-01 08:00:00 10.8 2 Sudoeste 30 Sudoeste 0 -- -- 62
2019-10-01 07:00:00 11 7 Sudoeste 27 Sudoeste 0 -- -- 62
2019-10-01 06:00:00 11.9 4 Sudoeste 15 Sur 0 -- -- 64
2019-10-01 05:00:00 10.9 0 Calma 12 Sudeste 0 -- -- 62
2019-10-01 04:00:00 13.3 5 Oeste 17 Oeste 0 -- -- 56
2019-10-01 03:00:00 14.1 11 Sudoeste 25 Sudoeste 0 -- -- 53
2019-10-01 02:00:00 14.3 12 Sudoeste 23 Sudoeste 0 -- -- 53
2019-10-01 01:00:00 14.3 12 Sudoeste 24 Sudoeste 0 -- -- 58
2019-10-01 00:00:00 14.7 14 Sudoeste 26 Sudoeste 0 -- -- 61
2019-09-30 23:00:00 14 4 Sudoeste 15 Sudoeste 0 -- -- 62
2019-09-30 22:00:00 13.3 9 Sudoeste 14 Sudoeste 0 -- -- 65
2019-09-30 21:00:00 12.6 0 Calma 4 Sudoeste 0 -- -- 82
2019-09-30 20:00:00 15.2 3 Noroeste 22 Sur 0 -- -- 70
2019-09-30 19:00:00 17.4 10 Sudoeste 22 Sudoeste 0 -- -- 43
2019-09-30 18:00:00 18.7 6 Oeste 34 Sur 0 -- -- 51
2019-09-30 17:00:00 19.5 12 Sur 23 Sudoeste 0 -- -- 45
2019-09-30 16:00:00 19.6 13 Sudoeste 31 Sur 0 -- -- 47
2019-09-30 15:00:00 17.6 18 Sur 30 Sur 0 -- -- 57
2019-09-30 14:00:00 17.8 12 Sur 25 Sur 0 -- -- 56
2019-09-30 13:00:00 16.9 13 Sudeste 22 Sudeste 0 -- -- 52
2019-09-30 12:00:00 16.1 14 Sur 22 Sur 0 -- -- 53
2019-09-30 11:00:00 16.6 5 Sur 13 Sudeste 0 -- -- 49
2019-09-30 10:00:00 14.5 10 Sur 14 Sur 0 -- -- 54
2019-09-30 09:00:00 10.8 8 Sudoeste 15 Sudoeste 0 -- -- 63
2019-09-30 08:00:00 10.3 11 Sur 14 Sur 0 -- -- 61
2019-09-30 07:00:00 10.4 10 Sur 17 Sur 0 -- -- 61
2019-09-30 06:00:00 10.2 11 Sudoeste 15 Sudoeste 0 -- -- 65
2019-09-30 05:00:00 10 11 Sudoeste 15 Sudoeste 0 -- -- 68
2019-09-30 04:00:00 9.8 10 Sudoeste 14 Sudoeste 0 -- -- 68
2019-09-30 03:00:00 10.6 11 Sudoeste 17 Sur 0 -- -- 65
2019-09-30 02:00:00 11.4 13 Sur 19 Sur 0 -- -- 70
2019-09-30 01:00:00 11.2 12 Sur 17 Sur 0 -- -- 70
2019-09-30 00:00:00 10.1 9 Sur 12 Sur 0 -- -- 85
2019-09-29 23:00:00 10.3 0 Calma 11 Sur 0 -- -- 84
2019-09-29 22:00:00 11.7 4 Sudoeste 22 Sudoeste 0 -- -- 82
2019-09-29 21:00:00 14.2 10 Sudoeste 18 Sudoeste 0 -- -- 69
2019-09-29 20:00:00 15.3 0 Calma 21 Sudoeste 0 -- -- 72
2019-09-29 19:00:00 16.8 5 Sur 23 Noroeste 0 -- -- 60
2019-09-29 18:00:00 17 0 Calma 23 Oeste 0 -- -- 58
2019-09-29 17:00:00 17.6 2 Este 19 Noroeste 0 -- -- 58
2019-09-29 16:00:00 18 5 Noroeste 18 Oeste 0 -- -- 53
2019-09-29 15:00:00 19.3 5 Oeste 24 Noroeste 0 -- -- 49
2019-09-29 14:00:00 19.5 8 Oeste 27 Sur 0 -- -- 43
2019-09-29 13:00:00 18.7 10 Sudoeste 30 Sudoeste 0 -- -- 39
2019-09-29 12:00:00 17.9 7 Sudoeste 23 Sudoeste 0 -- -- 36
2019-09-29 11:00:00 16.7 10 Sur 25 Sudoeste 0 -- -- 36
2019-09-29 10:00:00 14.7 7 Sur 24 Sudoeste 0 -- -- 36
2019-09-29 09:00:00 11.2 12 Sur 31 Sur 0 -- -- 36
2019-09-29 08:00:00 11.6 16 Sur 29 Sur 0 -- -- 33
2019-09-29 07:00:00 11.9 18 Sur 26 Sur 0 -- -- 32
2019-09-29 06:00:00 12 14 Sur 24 Sur 0 -- -- 31
2019-09-29 05:00:00 11.9 15 Sur 27 Sur 0 -- -- 34
2019-09-29 04:00:00 12.2 16 Sur 24 Sudoeste 0 -- -- 35
2019-09-29 03:00:00 12.1 10 Sur 27 Sur 0 -- -- 36
2019-09-29 02:00:00 12.9 13 Sur 26 Sur 0 -- -- 35
2019-09-29 01:00:00 13.5 18 Sur 27 Sur 0 -- -- 32
2019-09-29 00:00:00 13.7 14 Sur 30 Sudoeste 0 -- -- 30
2019-09-28 23:00:00 14.5 18 Sur 29 Sudoeste 0 -- -- 26
2019-09-28 22:00:00 15.3 18 Sur 31 Sudoeste 0 -- -- 22
2019-09-28 21:00:00 16.1 22 Sudoeste 31 Sudoeste 0 -- -- 24
2019-09-28 20:00:00 15 11 Sur 20 Sur 0 -- -- 30
2019-09-28 19:00:00 16.1 11 Sudoeste 23 Sur 0 -- -- 25
2019-09-28 18:00:00 18.4 9 Sur 24 Sur 0 -- -- 27
2019-09-28 17:00:00 18.6 15 Sur 28 Sur 0 -- -- 30
2019-09-28 16:00:00 18.3 11 Sur 31 Sur 0 -- -- 36
2019-09-28 15:00:00 17.2 15 Sur 29 Este 0 -- -- 40
2019-09-28 14:00:00 15.6 18 Sur 32 Sur 0 -- -- 43
2019-09-28 13:00:00 15.8 13 Sur 19 Sur 0 -- -- 38
2019-09-28 12:00:00 13.9 15 Sur 24 Sur 0 -- -- 45
2019-09-28 11:00:00 13.1 12 Sudeste 24 Sudeste 0 -- -- 49
2019-09-28 10:00:00 11.5 14 Sur 27 Sur 0 -- -- 54
2019-09-28 09:00:00 9.4 14 Sur 31 Sur 0 -- -- 65
2019-09-28 08:00:00 9.2 13 Sur 25 Sur 0 -- -- 61
2019-09-28 07:00:00 9.5 14 Sur 25 Sur 0 -- -- 62
2019-09-28 06:00:00 9.3 14 Sur 25 Sur 0 -- -- 60
2019-09-28 05:00:00 9.7 17 Sur 23 Sur 0 -- -- 65
2019-09-28 04:00:00 9.3 9 Sur 22 Sudeste 0 -- -- 70
2019-09-28 03:00:00 5.5 0 Calma 6 Sur 0 -- -- 86
2019-09-28 02:00:00 5.4 0 Calma 6 Sur 0 -- -- 90
2019-09-28 01:00:00 6 4 Sur 7 Sur 0 -- -- 90
2019-09-28 00:00:00 6 0 Calma 6 Sur 0 -- -- 90
2019-09-27 23:00:00 7.9 0 Calma 5 Sudoeste 0 -- -- 90
2019-09-27 22:00:00 8.4 3 Sudoeste 5 Sudoeste 0 -- -- 90
2019-09-27 21:00:00 9.7 2 Norte 9 Nordeste 0 -- -- 91
2019-09-27 20:00:00 10.8 0 Calma 6 Noroeste 0 -- -- 90
2019-09-27 19:00:00 11.4 0 Calma 8 Norte 0 -- -- 90
2019-09-27 18:00:00 11.9 5 Nordeste 11 Nordeste 0 -- -- 89
2019-09-27 17:00:00 12.9 3 Noroeste 15 Noroeste 0 -- -- 84
2019-09-27 16:00:00 13.8 8 Noroeste 25 Sudoeste 0 -- -- 73
2019-09-27 15:00:00 16.1 8 Sur 22 Noroeste 0 -- -- 52
2019-09-27 14:00:00 16.2 3 Oeste 30 Noroeste 0 -- -- 56
2019-09-27 13:00:00 15.7 2 Oeste 20 Sudoeste 0 -- -- 59
2019-09-27 12:00:00 12.9 5 Norte 16 Noroeste -- -- -- 65
2019-09-27 11:00:00 13 0 Calma 9 Sudeste 0 -- -- 68
2019-09-27 10:00:00 11.5 3 Sudeste 14 Sur 0 -- -- 65
2019-09-27 09:00:00 10.2 8 Sur 17 Sur 0 -- -- 66
2019-09-27 08:00:00 8.6 10 Sudoeste 14 Sudoeste -- -- -- 66
2019-09-27 07:00:00 8.4 10 Sur 15 Sur 0 -- -- 57
2019-09-27 06:00:00 8 9 Sur 12 Sudoeste 0 -- -- 53
2019-09-27 05:00:00 7.5 9 Sudoeste 14 Sudoeste 0 -- -- 62
2019-09-27 04:00:00 7.5 4 Sudoeste 11 Sudoeste 0 -- -- 56
2019-09-27 03:00:00 9 9 Sudoeste 15 Sur 0 -- -- 46
2019-09-27 02:00:00 8.2 5 Sudoeste 13 Sur 0 -- -- 47
2019-09-27 01:00:00 10.1 0 Calma 14 Sudoeste 0 -- -- 38
2019-09-27 00:00:00 13.1 6 Sudoeste 21 Sur 0 -- -- 34
2019-09-26 23:00:00 11 11 Sudoeste 18 Sur 0 -- -- 48
2019-09-26 22:00:00 11.7 12 Sur 16 Sudoeste 0 -- -- 55
2019-09-26 21:00:00 12.1 5 Sur 12 Sudoeste 0 -- -- 55
2019-09-26 20:00:00 13 5 Sudoeste 10 Sudoeste 0 -- -- 52
2019-09-26 19:00:00 14.1 3 Sudoeste 8 Noroeste 0 -- -- 63
2019-09-26 18:00:00 17.6 3 Oeste 10 Noroeste 0 -- -- 55
2019-09-26 17:00:00 16.4 5 Norte 13 Noroeste 0 -- -- 58
2019-09-26 16:00:00 18.3 5 Noroeste 12 Noroeste 0 -- -- 38
2019-09-26 15:00:00 18.6 6 Noroeste 14 Sur 0 -- -- 33
2019-09-26 14:00:00 19 0 Calma 14 Sudeste 0 -- -- 31
2019-09-26 13:00:00 18.3 3 Sudeste 12 Sudeste 0 -- -- 34
2019-09-26 12:00:00 16.7 6 Sudeste 18 Sur 0 -- -- 37
2019-09-26 11:00:00 16.2 0 Calma 24 Sur 0 -- -- 32
2019-09-26 10:00:00 13.4 21 Sur 28 Sudoeste 0 -- -- 35
2019-09-26 09:00:00 11.9 15 Sur 29 Sur 0 -- -- 32
2019-09-26 08:00:00 11 20 Sur 27 Sur 0 -- -- 51
2019-09-26 07:00:00 10.2 9 Sudoeste 17 Sudoeste 0 -- -- 38
2019-09-26 06:00:00 10.9 12 Sur 18 Sur 0 -- -- 41
2019-09-26 05:00:00 10.8 11 Sur 19 Sur 0 -- -- 40
2019-09-26 04:00:00 11.1 15 Sur 28 Sur 0 -- -- 48
2019-09-26 03:00:00 11.1 12 Sur 25 Sur 0 -- -- 65
2019-09-26 02:00:00 10.8 15 Sur 19 Sur 0 -- -- 73
2019-09-26 01:00:00 11.3 12 Sur 17 Sudeste 0 -- -- 70
2019-09-26 00:00:00 11.3 12 Sur 18 Sur 0 -- -- 72
2019-09-25 23:00:00 9.5 4 Sur 8 Sudoeste 0 -- -- 80
2019-09-25 22:00:00 10.2 0 Calma -- -- -- -- -- 83
2019-09-25 21:00:00 9.8 0 Calma 6 Sudoeste 0 -- -- 82
2019-09-25 20:00:00 11.2 2 Sudoeste 6 Noroeste 0 -- -- 75
2019-09-25 19:00:00 13.2 0 Calma 9 Noroeste 0 -- -- 69
2019-09-25 18:00:00 13.8 3 Noroeste 10 Noroeste 0 -- -- 64
2019-09-25 17:00:00 14.2 3 Noroeste 10 Noroeste 0 -- -- 62
2019-09-25 16:00:00 13.9 4 Noroeste 13 Noroeste 0 -- -- 61
2019-09-25 15:00:00 13.8 5 Noroeste 11 Noroeste 0 -- -- 60
2019-09-25 14:00:00 13.5 5 Noroeste 17 Sudeste 0 -- -- 58
2019-09-25 13:00:00 13 9 Sur 24 Sur 0 -- -- 59
2019-09-25 12:00:00 11.7 10 Sudeste 22 Este 0 -- -- 64
2019-09-25 11:00:00 10.1 10 Sur 21 Sudeste 0 -- -- 71
2019-09-25 10:00:00 8.5 5 Sudeste 11 Sudeste 0 -- -- 78
2019-09-25 09:00:00 6.7 3 Sudoeste 6 Noroeste 0 -- -- 83
2019-09-25 08:00:00 6.3 0 Calma 14 Oeste 0 -- -- 83
2019-09-25 07:00:00 6.3 0 Calma -- -- -- -- -- 81
2019-09-25 06:00:00 -- -- -- -- -- -- -- -- --
2019-09-25 05:00:00 6.1 2 Noroeste 8 Noroeste 0 -- -- 82
2019-09-25 04:00:00 5.6 3 Sudoeste 6 Sudoeste 0 -- -- 85
2019-09-25 03:00:00 5.2 0 Calma 10 Oeste 0 -- -- 82
2019-09-25 02:00:00 6.1 2 Sudoeste 13 Noroeste 0 -- -- 82
2019-09-25 01:00:00 6.9 0 Calma 13 Sudeste 0 -- -- 72
2019-09-25 00:00:00 6.4 3 Sudoeste 9 Nordeste 0 -- -- 78
2019-09-24 23:00:00 8.8 4 Sudeste 13 Oeste 0 -- -- 89
2019-09-24 22:00:00 9.4 2 Sudoeste -- -- -- -- -- 85
2019-09-24 21:00:00 -- -- -- -- -- -- -- -- --
2019-09-24 20:00:00 11.1 0 Calma 20 Sur 0 -- -- 74
2019-09-24 19:00:00 12.8 6 Oeste 20 Sudoeste 0 -- -- 52
2019-09-24 18:00:00 14.2 6 Sur 29 Sur 0 -- -- 45
2019-09-24 17:00:00 15.6 5 Sudoeste 25 Noroeste 0 -- -- 44
2019-09-24 16:00:00 15.8 6 Noroeste 33 Sudoeste 0 -- -- 46
2019-09-24 15:00:00 16.1 12 Sudoeste 36 Sudoeste 0 -- -- 48
2019-09-24 14:00:00 13.5 3 Nordeste 18 Nordeste 0.3 -- -- 74
2019-09-24 13:00:00 12.7 8 Sudeste 26 Sur 0 -- -- 81
2019-09-24 12:00:00 12.3 8 Sudeste 20 Sudeste 0 -- -- 81
2019-09-24 11:00:00 11.4 8 Sur 28 Sudoeste 0 -- -- 87
2019-09-24 10:00:00 11.1 12 Sur 29 Sudoeste 0 -- -- 86
2019-09-24 09:00:00 10.9 15 Sur 27 Sur 0.1 -- -- 86
2019-09-24 08:00:00 11 12 Sur 25 Sur 0 -- -- 84
2019-09-24 07:00:00 11.6 12 Sur 45 Sudoeste 0 -- -- 78
2019-09-24 06:00:00 12.8 21 Sur 51 Sudoeste 0.7 -- -- 73
2019-09-24 05:00:00 12.6 15 Sur 49 Sudeste 0 -- -- 72
2019-09-24 04:00:00 12.4 24 Sur 52 Sur 0 -- -- 73
2019-09-24 03:00:00 11.7 31 Sur 54 Sur 0 -- -- 75
2019-09-24 02:00:00 12.4 28 Sur 54 Sur 0 -- -- 73
2019-09-24 01:00:00 12.4 32 Sur 55 Sur 0 -- -- 73
2019-09-24 00:00:00 11.4 34 Sur 53 Sur 0 -- -- 73
2019-09-23 23:00:00 11.7 29 Sur 45 Sur 0 -- -- 72
2019-09-23 22:00:00 11.4 24 Sur 59 Sur 0 -- -- 77
2019-09-23 21:00:00 11 26 Sur 45 Sudeste 0 -- -- 79
2019-09-23 20:00:00 10.5 23 Sur 44 Sur 0 -- -- 79
2019-09-23 19:00:00 11.3 25 Sur 40 Sur 0 -- -- 67
2019-09-23 18:00:00 13.2 24 Sur 40 Sur 0 -- -- 56
2019-09-23 17:00:00 12.9 14 Sur 35 Sur 0 -- -- 56
2019-09-23 16:00:00 12.3 21 Sur 40 Sur 0 -- -- 57
2019-09-23 15:00:00 12 21 Sur 45 Sur 0 -- -- 59
2019-09-23 14:00:00 11.3 18 Sur 43 Sur 0 -- -- 59
2019-09-23 13:00:00 9.9 18 Sur 60 Sur 0 -- -- 61
2019-09-23 12:00:00 9 26 Sur 40 Sur 0 -- -- 61
2019-09-23 11:00:00 9.3 21 Sudeste 33 Sur 0 -- -- 56
2019-09-23 10:00:00 8.4 19 Sur 39 Sur 0 -- -- 62
2019-09-23 09:00:00 8.2 26 Sur 35 Sur 0 -- -- 59
2019-09-23 08:00:00 8.9 17 Sur 28 Sur 0 -- -- 52
2019-09-23 07:00:00 9.1 6 Sur 22 Sur 0 -- -- 48
2019-09-23 06:00:00 8.7 15 Sur 40 Sudoeste 0 -- -- 51
2019-09-23 05:00:00 9.4 25 Sur 44 Sur 0 -- -- 48
2019-09-23 04:00:00 9.6 27 Sudoeste 43 Sur 0 -- -- 48
2019-09-23 03:00:00 9.4 27 Sudoeste 44 Sudoeste 0 -- -- 54
2019-09-23 02:00:00 7.7 13 Sur 24 Sur 0 -- -- 66
2019-09-23 01:00:00 7 7 Sur 10 Sur 0 -- -- 68
2019-09-23 00:00:00 8.2 5 Sudoeste 13 Sudoeste 0 -- -- 64
2019-09-22 23:00:00 7.1 8 Sudoeste 15 Sur 0 -- -- 71
2019-09-22 22:00:00 6.9 4 Sur 10 Sur 0 -- -- 70
2019-09-22 21:00:00 8 6 Sudoeste 9 Sudoeste 0 -- -- 69
2019-09-22 20:00:00 9.4 0 Calma 12 Oeste 0 -- -- 63
2019-09-22 19:00:00 10 5 Noroeste 15 Oeste 0 -- -- 63
2019-09-22 18:00:00 11.6 5 Noroeste 28 Noroeste 0 -- -- 49
2019-09-22 17:00:00 12.5 9 Noroeste 21 Oeste 0 -- -- 45
2019-09-22 16:00:00 12.8 2 Sudoeste 23 Noroeste 0 -- -- 46
2019-09-22 15:00:00 12.5 9 Noroeste 27 Sudoeste 0 -- -- 50
2019-09-22 14:00:00 12.1 9 Sudoeste 32 Sur 0 -- -- 56
2019-09-22 13:00:00 10.8 12 Sur 23 Sur 0 -- -- 58
2019-09-22 12:00:00 9.4 13 Sur 23 Sur 0 -- -- 63
2019-09-22 11:00:00 8.3 9 Sudeste 22 Sur 0.1 -- -- 68
2019-09-22 10:00:00 7.1 14 Sur 25 Sur 0 -- -- 72
2019-09-22 09:00:00 6.6 10 Sur 18 Sudeste 0 -- -- 75
2019-09-22 08:00:00 6.8 8 Sur 17 Sur 0 -- -- 74
2019-09-22 07:00:00 6.2 10 Sur 17 Sur 0 -- -- 77
2019-09-22 06:00:00 7 6 Sudoeste 28 Sur 0 -- -- 70
2019-09-22 05:00:00 7.1 9 Sudoeste 19 Sudoeste 0 -- -- 70
2019-09-22 04:00:00 7.3 6 Sudoeste 28 Sur 0 -- -- 69
2019-09-22 03:00:00 7.3 3 Sudoeste 16 Norte 0 -- -- 71
2019-09-22 02:00:00 8.3 5 Sudoeste 32 Sudoeste 0 -- -- 62
2019-09-22 01:00:00 10.2 23 Sudoeste 57 Sudoeste 0.9 -- -- 53
2019-09-22 00:00:00 10.8 24 Sudoeste 49 Sur 7.7 -- -- 85
2019-09-21 23:00:00 11.7 23 Sur 46 Sur 3.7 -- -- 89
2019-09-21 22:00:00 12 19 Sur 48 Sur 2.1 -- -- 90
2019-09-21 21:00:00 12 20 Sur 59 Sur 5.3 -- -- 89
2019-09-21 20:00:00 12.1 26 Sur 56 Sur 5.1 -- -- 89
2019-09-21 19:00:00 11.8 33 Sur 58 Sur 0.7 -- -- 91
2019-09-21 18:00:00 11.8 28 Sur 55 Sur 2.4 -- -- 88
2019-09-21 17:00:00 11.6 23 Sur 52 Sur 1.3 -- -- 88
2019-09-21 16:00:00 11.5 28 Sur 60 Sur 0.3 -- -- 86
2019-09-21 15:00:00 11 33 Sur 60 Sur 0.2 -- -- 88
2019-09-21 14:00:00 10.8 29 Sur 59 Sur 0.2 -- -- 87
2019-09-21 13:00:00 10.9 30 Sur 58 Sur 0.1 -- -- 83
2019-09-21 12:00:00 10.6 27 Sur 51 Sur 0.6 -- -- 86
2019-09-21 11:00:00 10.2 26 Sur 51 Sur 0.2 -- -- 86
2019-09-21 10:00:00 9.8 23 Sur 48 Sur 0 -- -- 86
2019-09-21 09:00:00 10.1 27 Sur 52 Sudoeste 0 -- -- 82
2019-09-21 08:00:00 10.3 24 Sur 53 Sur 0 -- -- 78
2019-09-21 07:00:00 10.8 26 Sur 55 Sur 0 -- -- 74
2019-09-21 06:00:00 11.2 18 Sur 44 Sur 0 -- -- 73
2019-09-21 05:00:00 11.6 19 Sur 42 Sur 0 -- -- 74
2019-09-21 04:00:00 11.8 23 Sur 48 Sur 0 -- -- 78
2019-09-21 03:00:00 11.8 23 Sur 61 Sur 0 -- -- 79
2019-09-21 02:00:00 12.1 21 Sudeste 53 Sur 0 -- -- 77
2019-09-21 01:00:00 12.1 22 Sur 36 Sur 0 -- -- 76
2019-09-21 00:00:00 12.3 11 Sur 27 Sudeste 0 -- -- 74
2019-09-20 23:00:00 13.1 18 Sudeste 41 Este 0 -- -- 66
2019-09-20 22:00:00 15.8 14 Sur 32 Sudeste 0 -- -- 47
2019-09-20 21:00:00 15.6 15 Sur 31 Sur 0 -- -- 51
2019-09-20 20:00:00 16.2 15 Sur 32 Sur 0 -- -- 52
2019-09-20 19:00:00 16.7 17 Sur 34 Sur 0 -- -- 51
2019-09-20 18:00:00 16.6 13 Sudeste 34 Este 0 -- -- 56
2019-09-20 17:00:00 17.6 13 Sudeste 39 Este 0 -- -- 52
2019-09-20 16:00:00 18 15 Sur 32 Sur 0 -- -- 55
2019-09-20 15:00:00 17.9 13 Sur 41 Sur 0 -- -- 56
2019-09-20 14:00:00 18.3 16 Sudeste 36 Sudeste 0 -- -- 54
2019-09-20 13:00:00 16.2 16 Sur 36 Sudeste 0 -- -- 60
2019-09-20 12:00:00 15.3 19 Sudeste 40 Sudeste 0 -- -- 65
2019-09-20 11:00:00 16 12 Sudeste 30 Sur 0 -- -- 59
2019-09-20 10:00:00 14.5 17 Sur 31 Sur 0 -- -- 61
2019-09-20 09:00:00 13.4 21 Sur 31 Sur 0 -- -- 65
2019-09-20 08:00:00 13.4 21 Sur 32 Sur 0 -- -- 66
2019-09-20 07:00:00 13 18 Sur 28 Sur 0 -- -- 70
2019-09-20 06:00:00 12.9 21 Sur 29 Sur 0 -- -- 71
2019-09-20 05:00:00 12.8 19 Sur 26 Sur 0 -- -- 71
2019-09-20 04:00:00 13 21 Sur 28 Sur 0 -- -- 69
2019-09-20 03:00:00 13.1 20 Sur 39 Sur 0 -- -- 66
2019-09-20 02:00:00 13.7 20 Sur 31 Sur 0 -- -- 65
2019-09-20 01:00:00 14 14 Sur 21 Sur 0 -- -- 64
2019-09-20 00:00:00 14.3 13 Sur 17 Sur 0 -- -- 64
2019-09-19 23:00:00 13.7 10 Sur 18 Sur 0 -- -- 65
2019-09-19 22:00:00 13.6 13 Sur 16 Sur 0 -- -- 66
2019-09-19 21:00:00 13.9 12 Sur 15 Sur 0 -- -- 65
2019-09-19 20:00:00 14.5 0 Calma 5 Sur 0 -- -- 74
2019-09-19 19:00:00 15.1 2 Sur 13 Sur 0 -- -- 69
2019-09-19 18:00:00 14.5 2 Sur 8 Noroeste 0 -- -- 82
2019-09-19 17:00:00 15.4 4 Noroeste 8 Noroeste 0 -- -- 78
2019-09-19 16:00:00 14.8 0 Calma 7 Noroeste 0 -- -- 77
2019-09-19 15:00:00 15.7 2 Noroeste 10 Noroeste 0 -- -- 69
2019-09-19 14:00:00 16.6 3 Noroeste 11 Oeste 0 -- -- 68
2019-09-19 13:00:00 16 5 Noroeste 12 Noroeste 0 -- -- 67
2019-09-19 12:00:00 14.9 5 Noroeste 10 Noroeste 0 -- -- 70
2019-09-19 11:00:00 15.5 3 Noroeste 6 Noroeste 0 -- -- 68
2019-09-19 10:00:00 14.8 0 Calma 9 Sudoeste 0 -- -- 74
2019-09-19 09:00:00 11.8 8 Sudoeste 12 Sudoeste 0 -- -- 80
2019-09-19 08:00:00 11.1 8 Sur 12 Sudoeste 0 -- -- 80
2019-09-19 07:00:00 10.8 6 Sur 10 Sur 0 -- -- 82
2019-09-19 06:00:00 11.7 6 Sudoeste 11 Sudoeste 0 -- -- 78
2019-09-19 05:00:00 11.6 5 Sudoeste 12 Sur 0 -- -- 81
2019-09-19 04:00:00 12 9 Sur 12 Sudoeste 0 -- -- 81
2019-09-19 03:00:00 11.4 4 Sudoeste 10 Sur 0 -- -- 79
2019-09-19 02:00:00 13.3 10 Sur 13 Sur 0 -- -- 75
2019-09-19 01:00:00 11.9 8 Sur 10 Sur 0 -- -- 86
2019-09-19 00:00:00 11.6 2 Oeste 6 Sur 0 -- -- 88
2019-09-18 23:00:00 11.5 4 Sudoeste 8 Sudoeste 0 -- -- 86
2019-09-18 22:00:00 13.4 0 Calma 6 Oeste 0 -- -- 89
2019-09-18 21:00:00 13.6 0 Calma 8 Norte 0 -- -- 89
2019-09-18 20:00:00 14 2 Noroeste 9 Norte 0 -- -- 88
2019-09-18 19:00:00 14.6 3 Noroeste 9 Noroeste 0 -- -- 82
2019-09-18 18:00:00 15.1 4 Noroeste 12 Noroeste 0 -- -- 75
2019-09-18 17:00:00 16.2 7 Noroeste 15 Noroeste 0 -- -- 70
2019-09-18 16:00:00 16.6 3 Oeste 10 Noroeste 0 -- -- 68
2019-09-18 15:00:00 15.7 4 Noroeste 10 Noroeste 0 -- -- 68
2019-09-18 14:00:00 14.5 0 Calma 7 Noroeste 0 -- -- 69
2019-09-18 13:00:00 14.4 5 Noroeste 9 Oeste 0 -- -- 65
2019-09-18 12:00:00 14.8 2 Noroeste 7 Nordeste 0 -- -- 62
2019-09-18 11:00:00 13.6 2 Noroeste 7 Noroeste 0.2 -- -- 72
2019-09-18 10:00:00 12 0 Calma 7 Sudoeste 0.1 -- -- 75
2019-09-18 09:00:00 11.5 2 Sur 10 Sudoeste 0 -- -- 73
2019-09-18 08:00:00 11.1 6 Sudoeste 22 Sur 0 -- -- 68
2019-09-18 07:00:00 12.2 17 Sur 25 Sur 0 -- -- 65
2019-09-18 06:00:00 12.5 12 Sur 24 Sur 0 -- -- 65
2019-09-18 05:00:00 11.8 16 Sur 34 Sur 0 -- -- 71
2019-09-18 04:00:00 11.8 14 Sudeste 32 Sur 0.1 -- -- 73
2019-09-18 03:00:00 11.4 15 Sur 31 Sur 1 -- -- 76
2019-09-18 02:00:00 10.8 26 Sur 37 Sur 1.6 -- -- 80
2019-09-18 01:00:00 12.6 11 Sur 31 Sur 0.1 -- -- 68
2019-09-18 00:00:00 10.5 3 Sur 9 Sudoeste 0 -- -- 81
2019-09-17 23:00:00 10.1 3 Sudoeste 8 Sudoeste 0 -- -- 79
2019-09-17 22:00:00 11.2 3 Sur 10 Sudoeste 0.1 -- -- 78
2019-09-17 21:00:00 12 5 Sur 10 Este 0.1 -- -- 76